createdAt,value
2023-03-08T00:01:41.126Z,3.38
2023-03-08T00:04:11.534Z,4.88
2023-03-08T00:06:40.571Z,3.83
2023-03-08T00:09:11.333Z,5.10
2023-03-08T00:11:39.730Z,3.17
2023-03-08T00:14:08.441Z,6.28
2023-03-08T00:16:36.897Z,5.28
2023-03-08T00:19:08.800Z,3.42
2023-03-08T00:21:38.380Z,7.30
2023-03-08T00:24:12.539Z,3.55
2023-03-08T00:26:42.293Z,3.80
2023-03-08T00:29:12.076Z,4.80
2023-03-08T00:31:40.805Z,4.10
2023-03-08T00:34:09.387Z,4.47
2023-03-08T00:36:37.578Z,6.22
2023-03-08T00:39:05.987Z,4.73
2023-03-08T00:41:35.808Z,3.83
2023-03-08T00:44:05.313Z,4.47
2023-03-08T00:46:33.624Z,5.68
2023-03-08T00:49:02.116Z,4.88
2023-03-08T00:51:33.794Z,4.75
2023-03-08T00:54:03.068Z,7.50
2023-03-08T00:56:31.902Z,4.88
2023-03-08T00:59:01.830Z,5.00
2023-03-08T01:01:30.432Z,4.50
2023-03-08T01:03:59.322Z,5.22
2023-03-08T01:06:27.653Z,4.13
2023-03-08T01:08:55.897Z,4.80
2023-03-08T01:11:27.352Z,5.35
2023-03-08T01:13:57.098Z,7.43
2023-03-08T01:16:29.664Z,7.32
2023-03-08T01:18:59.631Z,7.28
2023-03-08T01:21:28.619Z,8.30
2023-03-08T01:23:57.558Z,7.75
2023-03-08T01:26:28.393Z,9.45
2023-03-08T01:28:57.888Z,9.88
2023-03-08T01:31:29.524Z,8.75
2023-03-08T01:33:59.781Z,8.43
2023-03-08T01:36:29.526Z,11.77
2023-03-08T01:39:00.930Z,9.00
2023-03-08T01:41:32.142Z,10.98
2023-03-08T01:44:00.992Z,9.33
2023-03-08T01:46:31.994Z,8.33
2023-03-08T01:49:08.844Z,10.02
2023-03-08T01:51:40.447Z,6.78
2023-03-08T01:54:12.055Z,11.13
2023-03-08T01:56:42.046Z,7.88
2023-03-08T01:59:11.095Z,8.23
2023-03-08T02:01:40.990Z,7.85
2023-03-08T02:04:09.408Z,8.77
2023-03-08T02:06:37.654Z,8.88
2023-03-08T02:09:07.722Z,7.80
2023-03-08T02:11:37.818Z,8.23
2023-03-08T02:14:06.363Z,7.32
2023-03-08T02:16:34.765Z,8.93
2023-03-08T02:19:07.755Z,8.27
2023-03-08T02:21:39.631Z,10.50
2023-03-08T02:24:20.491Z,8.35
2023-03-08T02:26:49.700Z,11.00
2023-03-08T02:29:18.026Z,12.00
2023-03-08T02:31:46.262Z,7.87
2023-03-08T02:34:20.584Z,9.35
2023-03-08T02:36:49.735Z,8.68
2023-03-08T02:39:19.377Z,8.10
2023-03-08T02:41:47.668Z,6.65
2023-03-08T02:44:16.858Z,9.88
2023-03-08T02:46:45.199Z,7.70
2023-03-08T02:49:13.380Z,11.60
2023-03-08T02:51:41.987Z,9.38
2023-03-08T02:54:10.295Z,12.07
2023-03-08T02:56:39.961Z,7.85
2023-03-08T02:59:08.282Z,10.13
2023-03-08T03:01:37.148Z,10.80
2023-03-08T03:04:05.987Z,12.00
2023-03-08T03:06:34.941Z,9.40
2023-03-08T03:09:07.089Z,13.33
2023-03-08T03:11:35.796Z,9.35
2023-03-08T03:14:05.763Z,10.05
2023-03-08T03:16:34.456Z,10.68
2023-03-08T03:19:03.402Z,11.05
2023-03-08T03:21:31.627Z,12.18
2023-03-08T03:24:01.030Z,10.40
2023-03-08T03:26:29.923Z,9.98
2023-03-08T03:28:59.553Z,9.90
2023-03-08T03:31:29.844Z,9.10
2023-03-08T03:33:59.283Z,11.07
2023-03-08T03:36:29.123Z,9.70
2023-03-08T03:38:57.860Z,11.10
2023-03-08T03:41:26.109Z,10.23
2023-03-08T03:43:54.943Z,12.30
2023-03-08T03:46:23.689Z,11.87
2023-03-08T03:48:53.769Z,10.80
2023-03-08T03:51:23.539Z,11.27
2023-03-08T03:53:52.515Z,14.23
2023-03-08T03:56:25.646Z,11.65
2023-03-08T03:58:54.996Z,9.80
2023-03-08T04:01:25.694Z,9.30
2023-03-08T04:03:56.407Z,11.20
2023-03-08T04:06:27.707Z,13.35
2023-03-08T04:08:57.700Z,10.25
2023-03-08T04:11:28.309Z,11.27
2023-03-08T04:13:57.168Z,11.40
2023-03-08T04:16:29.438Z,11.57
2023-03-08T04:19:01.579Z,12.20
2023-03-08T04:21:33.473Z,10.80
2023-03-08T04:24:01.947Z,14.25
2023-03-08T04:26:30.297Z,12.00
2023-03-08T04:29:03.077Z,9.25
2023-03-08T04:31:31.609Z,11.10
2023-03-08T04:34:02.721Z,9.70
2023-03-08T04:36:31.818Z,14.55
2023-03-08T04:39:01.608Z,10.70
2023-03-08T04:41:30.678Z,14.13
2023-03-08T04:44:00.207Z,14.75
2023-03-08T04:46:29.784Z,13.30
2023-03-08T04:48:58.690Z,12.05
2023-03-08T04:51:29.627Z,13.47
2023-03-08T04:53:58.692Z,11.05
2023-03-08T04:56:26.921Z,10.57
2023-03-08T04:58:55.190Z,11.07
2023-03-08T05:01:24.639Z,13.03
2023-03-08T05:03:54.330Z,12.57
2023-03-08T05:06:25.106Z,10.77
2023-03-08T05:08:55.759Z,13.70
2023-03-08T05:11:26.782Z,12.82
2023-03-08T05:13:56.653Z,14.00
2023-03-08T05:16:26.280Z,17.40
2023-03-08T05:18:54.697Z,13.07
2023-03-08T05:21:24.095Z,13.70
2023-03-08T05:23:52.312Z,16.83
2023-03-08T05:26:22.284Z,17.40
2023-03-08T05:28:51.356Z,16.45
2023-03-08T05:31:22.072Z,13.53
2023-03-08T05:33:53.676Z,12.47
2023-03-08T05:36:22.436Z,11.77
2023-03-08T05:38:54.947Z,13.73
2023-03-08T05:41:24.989Z,17.73
2023-03-08T05:43:58.614Z,13.57
2023-03-08T05:46:26.859Z,15.55
2023-03-08T05:48:55.474Z,14.25
2023-03-08T05:51:23.724Z,12.10
2023-03-08T05:53:51.957Z,14.68
2023-03-08T05:56:23.519Z,15.00
2023-03-08T05:58:53.643Z,13.68
2023-03-08T06:01:25.206Z,15.63
2023-03-08T06:03:55.842Z,15.20
2023-03-08T06:06:26.517Z,15.67
2023-03-08T06:08:58.660Z,16.20
2023-03-08T06:11:27.875Z,16.90
2023-03-08T06:13:57.599Z,20.07
2023-03-08T06:16:26.001Z,18.47
2023-03-08T06:18:54.653Z,16.00
2023-03-08T06:21:23.073Z,19.37
2023-03-08T06:23:52.006Z,18.45
2023-03-08T06:26:20.792Z,18.30
2023-03-08T06:28:49.005Z,18.80
2023-03-08T06:31:20.778Z,17.60
2023-03-08T06:33:49.688Z,15.57
2023-03-08T06:36:20.080Z,20.47
2023-03-08T06:38:49.242Z,18.23
2023-03-08T06:41:19.287Z,17.33
2023-03-08T06:43:48.271Z,22.63
2023-03-08T06:46:20.298Z,22.97
2023-03-08T06:48:51.549Z,21.07
2023-03-08T06:51:19.946Z,19.17
2023-03-08T06:53:48.713Z,23.50
2023-03-08T06:56:20.138Z,18.70
2023-03-08T06:58:48.353Z,19.73
2023-03-08T07:01:19.116Z,16.70
2023-03-08T07:03:49.006Z,19.47
2023-03-08T07:06:17.498Z,20.10
2023-03-08T07:08:45.771Z,15.50
2023-03-08T07:11:14.361Z,19.63
2023-03-08T07:13:43.168Z,16.37
2023-03-08T07:16:13.530Z,21.57
2023-03-08T07:18:43.297Z,14.37
2023-03-08T07:21:12.192Z,15.57
2023-03-08T07:23:40.557Z,15.57
2023-03-08T07:26:09.761Z,20.23
2023-03-08T07:28:38.240Z,17.60
2023-03-08T07:31:07.214Z,13.53
2023-03-08T07:33:35.813Z,8.60
2023-03-08T07:36:06.173Z,9.63
2023-03-08T07:38:35.031Z,11.27
2023-03-08T07:41:03.427Z,7.60
2023-03-08T07:43:31.699Z,5.43
2023-03-08T07:46:02.501Z,7.00
2023-03-08T07:48:31.798Z,6.10
2023-03-08T07:51:07.353Z,6.23
2023-03-08T07:53:36.679Z,7.53
2023-03-08T07:56:05.690Z,5.97
2023-03-08T07:58:35.830Z,5.43
2023-03-08T08:01:09.966Z,4.87
2023-03-08T08:03:38.856Z,4.87
2023-03-08T08:06:09.432Z,5.90
2023-03-08T08:08:37.746Z,4.13
2023-03-08T08:11:12.482Z,6.90
2023-03-08T08:13:41.239Z,6.10
2023-03-08T08:16:10.614Z,5.07
2023-03-08T08:18:39.246Z,7.07
2023-03-08T08:21:11.527Z,5.73
2023-03-08T08:23:40.935Z,7.23
2023-03-08T08:26:10.871Z,3.13
2023-03-08T08:28:40.956Z,3.97
2023-03-08T08:31:12.529Z,5.63
2023-03-08T08:33:40.870Z,4.63
2023-03-08T08:36:13.116Z,5.27
2023-03-08T08:38:43.329Z,2.60
2023-03-08T08:41:12.198Z,3.37
2023-03-08T08:43:40.554Z,5.33
2023-03-08T08:46:09.651Z,4.27
2023-03-08T08:48:38.715Z,4.43
2023-03-08T08:51:08.181Z,4.50
2023-03-08T08:53:38.152Z,3.70
2023-03-08T08:56:26.136Z,5.20
2023-03-08T08:58:56.587Z,4.07
2023-03-08T09:01:27.089Z,4.57
2023-03-08T09:03:56.758Z,5.30
2023-03-08T09:06:26.806Z,7.27
2023-03-08T09:08:58.200Z,4.63
2023-03-08T09:11:28.190Z,7.93
2023-03-08T09:13:56.983Z,8.10
2023-03-08T09:16:27.092Z,6.50
2023-03-08T09:18:56.474Z,3.47
2023-03-08T09:21:25.087Z,4.53
2023-03-08T09:23:53.939Z,4.23
2023-03-08T09:26:23.510Z,3.00
2023-03-08T09:28:51.729Z,2.83
2023-03-08T09:31:20.102Z,1.77
2023-03-08T09:33:52.040Z,3.80
2023-03-08T09:36:21.095Z,2.47
2023-03-08T09:38:54.027Z,4.43
2023-03-08T09:41:38.256Z,3.00
2023-03-08T09:44:17.426Z,5.57
2023-03-08T09:46:49.745Z,1.37
2023-03-08T09:49:24.066Z,1.93
2023-03-08T09:51:55.020Z,4.30
2023-03-08T09:54:25.777Z,4.50
2023-03-08T09:56:56.424Z,4.70
2023-03-08T09:59:32.768Z,4.90
2023-03-08T10:02:05.683Z,3.37
2023-03-08T10:08:15.083Z,3.40
2023-03-08T10:10:52.259Z,3.67
2023-03-08T10:13:34.325Z,3.03
2023-03-08T10:16:43.643Z,2.77
2023-03-08T10:19:21.760Z,3.70
2023-03-08T10:22:04.201Z,4.30
2023-03-08T10:25:33.277Z,2.93
2023-03-08T10:28:16.829Z,3.60
2023-03-08T10:30:49.302Z,4.90
2023-03-08T10:33:20.131Z,4.90
2023-03-08T10:35:58.893Z,5.47
2023-03-08T10:38:29.494Z,6.97
2023-03-08T10:41:02.932Z,5.20
2023-03-08T10:43:34.429Z,4.60
2023-03-08T10:46:07.786Z,6.23
2023-03-08T10:48:36.129Z,5.10
2023-03-08T10:51:07.151Z,5.97
2023-03-08T10:53:35.595Z,3.43
2023-03-08T10:56:03.961Z,2.87
2023-03-08T10:58:35.907Z,3.10
2023-03-08T11:01:07.832Z,4.23
2023-03-08T11:03:42.212Z,3.50
2023-03-08T11:06:16.453Z,2.93
2023-03-08T11:08:54.557Z,2.80
2023-03-08T11:11:22.981Z,3.43
2023-03-08T11:13:53.338Z,4.10
2023-03-08T11:16:40.643Z,3.30
2023-03-08T11:19:27.466Z,4.53
2023-03-08T11:22:03.811Z,3.67
2023-03-08T11:24:53.731Z,5.00
2023-03-08T11:27:37.522Z,5.77
2023-03-08T11:30:20.631Z,7.30
2023-03-08T11:33:11.817Z,4.43
2023-03-08T11:35:47.133Z,5.90
2023-03-08T11:38:19.812Z,4.57
2023-03-08T11:40:59.947Z,4.83
2023-03-08T11:43:44.297Z,4.67
2023-03-08T11:46:23.858Z,4.30
2023-03-08T11:49:15.895Z,4.70
2023-03-08T11:51:52.035Z,5.20
2023-03-08T11:54:36.125Z,5.90
2023-03-08T11:57:07.121Z,6.30
2023-03-08T11:59:38.976Z,5.03
2023-03-08T12:02:17.117Z,9.60
2023-03-08T12:04:58.821Z,4.30
2023-03-08T12:07:33.350Z,6.83
2023-03-08T12:10:07.348Z,5.73
2023-03-08T12:12:41.527Z,6.30
2023-03-08T12:15:23.471Z,5.97
2023-03-08T12:17:55.728Z,7.80
2023-03-08T12:20:27.757Z,7.30
2023-03-08T12:23:09.553Z,6.67
2023-03-08T12:25:44.247Z,6.13
2023-03-08T12:28:20.583Z,6.10
2023-03-08T12:31:02.252Z,6.17
2023-03-08T12:33:32.470Z,8.63
2023-03-08T12:36:04.765Z,9.43
2023-03-08T12:38:37.121Z,8.03
2023-03-08T12:41:08.085Z,8.90
2023-03-08T12:43:38.680Z,10.77
2023-03-08T12:46:09.456Z,10.90
2023-03-08T12:48:42.042Z,10.73
2023-03-08T12:51:24.227Z,8.57
2023-03-08T12:54:02.605Z,9.93
2023-03-08T12:56:34.544Z,10.20
2023-03-08T12:59:05.436Z,7.87
2023-03-08T13:01:39.784Z,8.80
2023-03-08T13:04:39.933Z,8.77
2023-03-08T13:07:26.612Z,7.40
2023-03-08T13:10:00.977Z,8.47
2023-03-08T13:12:41.278Z,8.27
2023-03-08T13:15:22.200Z,11.93
2023-03-08T13:17:53.385Z,11.83
2023-03-08T13:20:29.050Z,10.47
2023-03-08T13:23:10.716Z,10.03
2023-03-08T13:25:52.512Z,6.90
2023-03-08T13:28:22.036Z,7.07
2023-03-08T13:30:53.112Z,8.60
2023-03-08T13:33:24.294Z,8.23
2023-03-08T13:35:57.276Z,10.23
2023-03-08T13:38:30.543Z,9.23
2023-03-08T13:41:00.546Z,8.20
2023-03-08T13:43:30.482Z,8.70
2023-03-08T13:46:01.643Z,7.43
2023-03-08T13:48:31.955Z,6.53
2023-03-08T13:51:04.019Z,10.37
2023-03-08T13:53:37.400Z,8.43
2023-03-08T13:56:12.332Z,7.90
2023-03-08T13:58:46.920Z,6.70
2023-03-08T14:01:18.754Z,8.27
2023-03-08T14:03:48.631Z,6.53
2023-03-08T14:06:24.622Z,7.00
2023-03-08T14:09:00.653Z,7.77
2023-03-08T14:11:31.235Z,7.43
2023-03-08T14:14:03.024Z,7.17
2023-03-08T14:16:34.077Z,8.87
2023-03-08T14:19:11.525Z,8.33
2023-03-08T14:21:48.166Z,11.70
2023-03-08T14:24:23.744Z,10.83
2023-03-08T14:26:56.895Z,19.87
2023-03-08T14:29:26.448Z,9.53
2023-03-08T14:31:58.318Z,9.60
2023-03-08T14:34:29.008Z,8.87
2023-03-08T14:37:02.681Z,8.93
2023-03-08T14:39:34.198Z,9.03
2023-03-08T14:42:15.238Z,7.67
2023-03-08T14:44:44.435Z,8.53
2023-03-08T14:47:22.909Z,9.37
2023-03-08T14:50:02.481Z,8.57
2023-03-08T14:52:32.202Z,8.17
2023-03-08T14:55:03.509Z,9.73
2023-03-08T14:57:32.560Z,9.07
2023-03-08T15:00:07.796Z,9.13
2023-03-08T15:02:37.455Z,10.87
2023-03-08T15:05:09.086Z,11.17
2023-03-08T15:07:38.326Z,11.07
2023-03-08T15:10:13.126Z,9.83
2023-03-08T15:12:42.328Z,10.43
2023-03-08T15:15:15.332Z,13.07
2023-03-08T15:17:47.437Z,11.53
2023-03-08T15:20:16.687Z,12.60
2023-03-08T15:22:48.269Z,13.88
2023-03-08T15:25:26.638Z,9.73
2023-03-08T15:27:55.390Z,10.00
2023-03-08T15:30:26.420Z,12.60
2023-03-08T15:32:55.592Z,13.98
2023-03-08T15:35:27.196Z,10.35
2023-03-08T15:37:55.595Z,8.87
2023-03-08T15:40:27.657Z,8.17
2023-03-08T15:42:56.695Z,11.23
2023-03-08T15:45:25.530Z,12.00
2023-03-08T15:47:58.019Z,11.60
2023-03-08T15:50:26.690Z,11.67
2023-03-08T15:52:55.648Z,11.57
2023-03-08T15:55:27.328Z,12.13
2023-03-08T15:57:56.349Z,11.20
2023-03-08T16:00:26.133Z,9.32
2023-03-08T16:02:54.485Z,10.70
2023-03-08T16:05:25.190Z,10.50
2023-03-08T16:07:56.770Z,11.73
2023-03-08T16:10:27.721Z,10.70
2023-03-08T16:12:56.137Z,12.20
2023-03-08T16:15:24.705Z,11.45
2023-03-08T16:17:52.953Z,10.23
2023-03-08T16:20:23.400Z,13.55
2023-03-08T16:22:51.971Z,12.82
2023-03-08T16:25:22.572Z,13.77
2023-03-08T16:27:53.137Z,10.67
2023-03-08T16:30:21.693Z,11.00
2023-03-08T16:32:53.842Z,12.02
2023-03-08T16:35:22.172Z,14.77
2023-03-08T16:37:50.428Z,13.03
2023-03-08T16:40:19.116Z,14.37
2023-03-08T16:42:48.411Z,15.53
2023-03-08T16:45:17.971Z,14.77
2023-03-08T16:47:46.495Z,15.50
2023-03-08T16:50:14.870Z,14.98
2023-03-08T16:52:43.119Z,14.80
2023-03-08T16:55:12.171Z,17.27
2023-03-08T16:57:40.775Z,15.93
2023-03-08T17:00:12.647Z,14.73
2023-03-08T17:02:43.663Z,15.47
2023-03-08T17:05:14.008Z,19.35
2023-03-08T17:07:42.295Z,16.02
2023-03-08T17:10:11.868Z,15.15
2023-03-08T17:12:40.236Z,14.27
2023-03-08T17:15:10.937Z,14.65
2023-03-08T17:17:41.508Z,15.15
2023-03-08T17:20:11.302Z,13.00
2023-03-08T17:22:39.629Z,12.77
2023-03-08T17:25:09.523Z,9.65
2023-03-08T17:27:38.072Z,20.45
2023-03-08T17:30:07.407Z,11.43
2023-03-08T17:32:35.990Z,20.60
2023-03-08T17:35:06.700Z,10.05
2023-03-08T17:37:41.816Z,15.13
2023-03-08T17:40:12.064Z,23.13
2023-03-08T17:42:40.506Z,26.25
2023-03-08T17:45:09.647Z,14.77
2023-03-08T17:47:38.310Z,12.68
2023-03-08T17:50:09.435Z,17.35
2023-03-08T17:52:37.650Z,13.88
2023-03-08T17:55:10.228Z,17.33
2023-03-08T17:57:41.558Z,13.50
2023-03-08T18:00:12.308Z,12.80
2023-03-08T18:02:43.428Z,11.98
2023-03-08T18:05:13.771Z,10.88
2023-03-08T18:07:42.338Z,13.48
2023-03-08T18:10:12.593Z,14.83
2023-03-08T18:12:40.866Z,15.00
2023-03-08T18:15:10.099Z,15.32
2023-03-08T18:17:40.104Z,17.60
2023-03-08T18:20:11.283Z,17.65
2023-03-08T18:22:41.876Z,20.23
2023-03-08T18:25:10.765Z,20.17
2023-03-08T18:27:39.519Z,24.45
2023-03-08T18:30:09.369Z,24.60
2023-03-08T18:32:38.107Z,23.80
2023-03-08T18:35:07.225Z,25.60
2023-03-08T18:37:35.627Z,26.60
2023-03-08T18:40:11.442Z,29.67
2023-03-08T18:42:39.602Z,37.57
2023-03-08T18:45:09.798Z,30.47
2023-03-08T18:47:38.901Z,29.43
2023-03-08T18:50:09.579Z,31.80
2023-03-08T18:52:37.933Z,29.15
2023-03-08T18:55:09.714Z,26.10
2023-03-08T18:57:39.149Z,26.92
2023-03-08T19:00:10.807Z,32.23
2023-03-08T19:02:42.355Z,26.20
2023-03-08T19:05:11.152Z,28.33
2023-03-08T19:07:41.141Z,28.20
2023-03-08T19:10:14.721Z,26.38
2023-03-08T19:12:43.828Z,29.00
2023-03-08T19:15:12.865Z,27.65
2023-03-08T19:17:41.143Z,24.02
2023-03-08T19:20:11.054Z,24.87
2023-03-08T19:22:39.754Z,25.48
2023-03-08T19:25:08.680Z,24.55
2023-03-08T19:27:38.456Z,23.05
2023-03-08T19:30:07.599Z,23.52
2023-03-08T19:32:36.087Z,22.75
2023-03-08T19:35:04.833Z,24.77
2023-03-08T19:37:33.138Z,23.88
2023-03-08T19:40:01.634Z,22.15
2023-03-08T19:42:29.952Z,24.97
2023-03-08T19:44:59.556Z,26.47
2023-03-08T19:47:27.880Z,22.33
2023-03-08T19:49:56.831Z,22.03
2023-03-08T19:52:25.080Z,22.07
2023-03-08T19:54:53.313Z,24.07
2023-03-08T19:57:21.752Z,24.00
2023-03-08T19:59:50.286Z,20.13
2023-03-08T20:02:19.926Z,19.08
2023-03-08T20:04:48.685Z,23.65
2023-03-08T20:07:17.002Z,20.95
2023-03-08T20:09:45.400Z,22.15
2023-03-08T20:12:13.657Z,20.35
2023-03-08T20:14:41.912Z,19.70
2023-03-08T20:17:10.159Z,21.93
2023-03-08T20:19:39.841Z,22.20
2023-03-08T20:22:08.094Z,20.20
2023-03-08T20:24:36.440Z,19.80
2023-03-08T20:27:05.174Z,23.07
2023-03-08T20:29:34.471Z,20.20
2023-03-08T20:32:02.798Z,19.85
2023-03-08T20:34:32.640Z,20.75
2023-03-08T20:37:02.338Z,20.10
2023-03-08T20:39:30.673Z,20.95
2023-03-08T20:41:59.622Z,16.20
2023-03-08T20:44:28.004Z,17.70
2023-03-08T20:46:56.299Z,18.08
2023-03-08T20:49:26.306Z,17.70
2023-03-08T20:51:54.538Z,17.58
2023-03-08T20:54:24.774Z,19.75
2023-03-08T20:56:53.024Z,20.15
2023-03-08T20:59:24.084Z,23.03
2023-03-08T21:01:52.627Z,18.42
2023-03-08T21:04:21.401Z,20.00
2023-03-08T21:06:49.835Z,22.70
2023-03-08T21:09:18.177Z,20.08
2023-03-08T21:11:47.715Z,20.77
2023-03-08T21:14:16.358Z,20.95
2023-03-08T21:16:44.574Z,21.92
2023-03-08T21:19:13.281Z,22.47
2023-03-08T21:21:43.773Z,25.00
2023-03-08T21:24:13.725Z,25.90
2023-03-08T21:26:42.100Z,22.23
2023-03-08T21:29:14.258Z,24.47
2023-03-08T21:31:44.107Z,23.33
2023-03-08T21:34:14.472Z,24.77
2023-03-08T21:36:43.108Z,23.70
2023-03-08T21:39:12.447Z,23.70
2023-03-08T21:41:44.022Z,24.93
2023-03-08T21:44:16.049Z,24.50
2023-03-08T21:46:44.956Z,30.17
2023-03-08T21:49:18.139Z,30.43
2023-03-08T21:51:46.627Z,26.13
2023-03-08T21:54:15.683Z,28.57
2023-03-08T21:56:44.333Z,30.47
2023-03-08T21:59:14.281Z,29.17
2023-03-08T22:01:44.160Z,31.47
2023-03-08T22:04:12.637Z,37.90
2023-03-08T22:06:40.874Z,34.00
2023-03-08T22:09:09.596Z,36.50
2023-03-08T22:11:37.965Z,33.50
2023-03-08T22:14:07.138Z,31.67
2023-03-08T22:16:37.976Z,32.60
2023-03-08T22:19:06.970Z,34.13
2023-03-08T22:21:35.319Z,28.93
2023-03-08T22:24:03.776Z,31.80
2023-03-08T22:26:34.919Z,31.00
2023-03-08T22:29:03.260Z,34.90
2023-03-08T22:31:32.155Z,30.93
2023-03-08T22:34:02.444Z,36.67
2023-03-08T22:36:30.813Z,32.80
2023-03-08T22:38:59.434Z,32.10
2023-03-08T22:41:29.822Z,38.50
2023-03-08T22:43:58.324Z,28.57
2023-03-08T22:46:28.452Z,33.27
2023-03-08T22:48:58.133Z,32.00
2023-03-08T22:51:28.724Z,28.10
2023-03-08T22:53:59.142Z,28.67
2023-03-08T22:56:30.144Z,25.03
2023-03-08T22:58:59.089Z,26.57
2023-03-08T23:01:28.634Z,22.87
2023-03-08T23:03:59.694Z,24.57
2023-03-08T23:06:30.934Z,20.30
2023-03-08T23:09:00.708Z,20.60
2023-03-08T23:11:29.556Z,18.17
2023-03-08T23:14:00.901Z,17.37
2023-03-08T23:16:32.265Z,20.90
2023-03-08T23:19:00.563Z,16.70
2023-03-08T23:21:32.018Z,15.60
2023-03-08T23:24:00.418Z,15.90
2023-03-08T23:26:29.182Z,15.50
2023-03-08T23:28:58.847Z,14.60
2023-03-08T23:31:29.461Z,14.43
2023-03-08T23:33:58.120Z,15.10
2023-03-08T23:36:27.485Z,14.57
2023-03-08T23:38:57.755Z,11.47
2023-03-08T23:41:26.361Z,11.90
2023-03-08T23:43:56.511Z,10.97
2023-03-08T23:46:26.136Z,12.90
2023-03-08T23:48:57.057Z,15.33
2023-03-08T23:51:27.411Z,12.00
2023-03-08T23:53:58.687Z,10.47
2023-03-08T23:56:30.224Z,11.57
2023-03-08T23:59:01.159Z,10.60
